sensor_id;sensor_type;location;lat;lon;timestamp;pressure;altitude;pressure_sealevel;temperature;humidity
48926;BME280;39838;59.938;30.642;2023-02-13T00:00:57;100396.59;;;0.54;92.62
48926;BME280;39838;59.938;30.642;2023-02-13T00:03:24;100401.50;;;0.50;92.05
48926;BME280;39838;59.938;30.642;2023-02-13T00:05:51;100408.16;;;0.46;92.20
48926;BME280;39838;59.938;30.642;2023-02-13T00:08:18;100385.31;;;0.49;92.47
48926;BME280;39838;59.938;30.642;2023-02-13T00:10:47;100388.59;;;0.47;92.35
48926;BME280;39838;59.938;30.642;2023-02-13T00:13:15;100386.13;;;0.48;92.57
48926;BME280;39838;59.938;30.642;2023-02-13T00:15:42;100392.16;;;0.50;92.59
48926;BME280;39838;59.938;30.642;2023-02-13T00:18:09;100388.91;;;0.54;92.40
48926;BME280;39838;59.938;30.642;2023-02-13T00:20:36;100395.78;;;0.56;92.14
48926;BME280;39838;59.938;30.642;2023-02-13T00:23:03;100386.38;;;0.54;92.07
48926;BME280;39838;59.938;30.642;2023-02-13T00:25:30;100394.03;;;0.54;91.99
48926;BME280;39838;59.938;30.642;2023-02-13T00:27:59;100402.63;;;0.57;91.64
48926;BME280;39838;59.938;30.642;2023-02-13T00:30:26;100400.97;;;0.59;91.58
48926;BME280;39838;59.938;30.642;2023-02-13T00:32:53;100392.44;;;0.58;92.07
48926;BME280;39838;59.938;30.642;2023-02-13T00:35:20;100388.09;;;0.56;91.97
48926;BME280;39838;59.938;30.642;2023-02-13T00:37:47;100380.66;;;0.62;91.70
48926;BME280;39838;59.938;30.642;2023-02-13T00:40:15;100383.13;;;0.60;91.69
48926;BME280;39838;59.938;30.642;2023-02-13T00:42:42;100389.31;;;0.65;91.43
48926;BME280;39838;59.938;30.642;2023-02-13T00:45:10;100395.44;;;0.69;91.53
48926;BME280;39838;59.938;30.642;2023-02-13T00:47:37;100381.91;;;0.73;91.13
48926;BME280;39838;59.938;30.642;2023-02-13T00:50:05;100385.53;;;0.78;91.16
48926;BME280;39838;59.938;30.642;2023-02-13T00:52:32;100377.03;;;0.79;91.05
48926;BME280;39838;59.938;30.642;2023-02-13T00:54:59;100372.75;;;0.78;90.73
48926;BME280;39838;59.938;30.642;2023-02-13T00:57:27;100366.75;;;0.77;90.86
48926;BME280;39838;59.938;30.642;2023-02-13T00:59:56;100378.63;;;0.75;90.53
48926;BME280;39838;59.938;30.642;2023-02-13T01:02:25;100356.13;;;0.67;90.20
48926;BME280;39838;59.938;30.642;2023-02-13T01:04:52;100364.66;;;0.67;90.41
48926;BME280;39838;59.938;30.642;2023-02-13T01:07:19;100345.97;;;0.68;90.56
48926;BME280;39838;59.938;30.642;2023-02-13T01:09:46;100342.47;;;0.66;90.49
48926;BME280;39838;59.938;30.642;2023-02-13T01:12:13;100344.28;;;0.69;90.46
48926;BME280;39838;59.938;30.642;2023-02-13T01:14:40;100363.28;;;0.75;90.56
48926;BME280;39838;59.938;30.642;2023-02-13T01:17:07;100347.75;;;0.71;89.90
48926;BME280;39838;59.938;30.642;2023-02-13T01:19:36;100346.88;;;0.70;90.32
48926;BME280;39838;59.938;30.642;2023-02-13T01:22:03;100350.41;;;0.74;90.26
48926;BME280;39838;59.938;30.642;2023-02-13T01:24:30;100359.03;;;0.76;89.83
48926;BME280;39838;59.938;30.642;2023-02-13T01:26:58;100350.38;;;0.72;89.87
48926;BME280;39838;59.938;30.642;2023-02-13T01:29:27;100339.25;;;0.72;90.16
48926;BME280;39838;59.938;30.642;2023-02-13T01:31:54;100341.13;;;0.76;90.17
48926;BME280;39838;59.938;30.642;2023-02-13T01:34:21;100337.03;;;0.81;89.72
48926;BME280;39838;59.938;30.642;2023-02-13T01:36:50;100339.72;;;0.84;89.81
48926;BME280;39838;59.938;30.642;2023-02-13T01:39:17;100344.69;;;0.81;89.17
48926;BME280;39838;59.938;30.642;2023-02-13T01:41:44;100345.28;;;0.74;89.18
48926;BME280;39838;59.938;30.642;2023-02-13T01:47:24;100334.97;;;0.71;89.57
48926;BME280;39838;59.938;30.642;2023-02-13T01:50:01;100321.03;;;0.63;88.97
48926;BME280;39838;59.938;30.642;2023-02-13T01:52:32;100338.56;;;0.76;88.77
48926;BME280;39838;59.938;30.642;2023-02-13T01:54:59;100333.56;;;0.79;88.72
48926;BME280;39838;59.938;30.642;2023-02-13T01:57:31;100306.84;;;0.71;88.89
48926;BME280;39838;59.938;30.642;2023-02-13T02:00:00;100325.84;;;0.77;88.83
48926;BME280;39838;59.938;30.642;2023-02-13T02:02:33;100336.16;;;0.80;88.61
48926;BME280;39838;59.938;30.642;2023-02-13T02:05:01;100318.25;;;0.80;88.65
48926;BME280;39838;59.938;30.642;2023-02-13T02:07:31;100326.81;;;0.81;88.53
48926;BME280;39838;59.938;30.642;2023-02-13T02:10:02;100323.31;;;0.79;88.64
48926;BME280;39838;59.938;30.642;2023-02-13T02:12:35;100311.59;;;0.84;88.90
48926;BME280;39838;59.938;30.642;2023-02-13T02:15:05;100320.41;;;0.92;88.87
48926;BME280;39838;59.938;30.642;2023-02-13T02:17:33;100320.41;;;0.92;88.89
48926;BME280;39838;59.938;30.642;2023-02-13T02:20:12;100318.66;;;0.91;88.39
48926;BME280;39838;59.938;30.642;2023-02-13T02:23:28;100301.53;;;0.89;88.74
48926;BME280;39838;59.938;30.642;2023-02-13T02:26:36;100313.44;;;0.88;88.41
48926;BME280;39838;59.938;30.642;2023-02-13T02:29:32;100309.19;;;0.89;88.44
48926;BME280;39838;59.938;30.642;2023-02-13T02:32:20;100294.59;;;0.86;88.23
48926;BME280;39838;59.938;30.642;2023-02-13T02:34:56;100293.09;;;0.91;88.15
48926;BME280;39838;59.938;30.642;2023-02-13T02:37:38;100295.63;;;0.91;88.22
48926;BME280;39838;59.938;30.642;2023-02-13T02:40:19;100300.56;;;0.87;87.99
48926;BME280;39838;59.938;30.642;2023-02-13T02:42:59;100278.66;;;0.69;88.37
48926;BME280;39838;59.938;30.642;2023-02-13T02:45:37;100309.03;;;0.84;88.14
48926;BME280;39838;59.938;30.642;2023-02-13T02:48:14;100300.53;;;0.85;88.21
48926;BME280;39838;59.938;30.642;2023-02-13T02:51:09;100321.00;;;0.85;88.37
48926;BME280;39838;59.938;30.642;2023-02-13T02:53:44;100306.25;;;0.78;88.51
48926;BME280;39838;59.938;30.642;2023-02-13T02:56:19;100307.97;;;0.79;88.34
48926;BME280;39838;59.938;30.642;2023-02-13T02:58:51;100310.44;;;0.76;88.14
48926;BME280;39838;59.938;30.642;2023-02-13T03:01:39;100305.06;;;0.68;88.25
48926;BME280;39838;59.938;30.642;2023-02-13T03:04:30;100332.38;;;0.69;88.20
48926;BME280;39838;59.938;30.642;2023-02-13T03:07:17;100309.16;;;0.65;88.58
48926;BME280;39838;59.938;30.642;2023-02-13T03:09:47;100310.03;;;0.65;89.03
48926;BME280;39838;59.938;30.642;2023-02-13T03:12:35;100313.25;;;0.60;88.74
48926;BME280;39838;59.938;30.642;2023-02-13T03:15:22;100305.66;;;0.61;89.25
48926;BME280;39838;59.938;30.642;2023-02-13T03:17:51;100293.00;;;0.66;89.20
48926;BME280;39838;59.938;30.642;2023-02-13T03:20:44;100254.72;;;0.43;88.80
48926;BME280;39838;59.938;30.642;2023-02-13T03:23:37;100278.63;;;0.68;88.51
48926;BME280;39838;59.938;30.642;2023-02-13T03:26:17;100252.03;;;0.40;88.50
48926;BME280;39838;59.938;30.642;2023-02-13T03:29:06;100275.94;;;0.65;88.57
48926;BME280;39838;59.938;30.642;2023-02-13T03:32:01;100272.47;;;0.63;88.71
48926;BME280;39838;59.938;30.642;2023-02-13T03:34:32;100267.84;;;0.54;88.93
48926;BME280;39838;59.938;30.642;2023-02-13T03:37:17;100264.56;;;0.57;88.53
48926;BME280;39838;59.938;30.642;2023-02-13T03:40:08;100266.13;;;0.53;88.92
48926;BME280;39838;59.938;30.642;2023-02-13T03:42:41;100249.09;;;0.53;88.64
48926;BME280;39838;59.938;30.642;2023-02-13T03:45:13;100250.09;;;0.57;88.83
48926;BME280;39838;59.938;30.642;2023-02-13T03:48:01;100241.59;;;0.58;88.87
48926;BME280;39838;59.938;30.642;2023-02-13T03:50:36;100249.31;;;0.60;88.74
48926;BME280;39838;59.938;30.642;2023-02-13T03:53:07;100256.16;;;0.61;88.49
48926;BME280;39838;59.938;30.642;2023-02-13T03:55:38;100272.34;;;0.60;88.27
48926;BME280;39838;59.938;30.642;2023-02-13T03:58:27;100280.81;;;0.59;88.76
48926;BME280;39838;59.938;30.642;2023-02-13T04:01:16;100293.50;;;0.56;88.47
48926;BME280;39838;59.938;30.642;2023-02-13T04:03:48;100285.84;;;0.56;88.57
48926;BME280;39838;59.938;30.642;2023-02-13T04:06:19;100272.06;;;0.52;88.41
48926;BME280;39838;59.938;30.642;2023-02-13T04:08:49;100261.72;;;0.49;88.84
48926;BME280;39838;59.938;30.642;2023-02-13T04:11:20;100235.66;;;0.35;88.45
48926;BME280;39838;59.938;30.642;2023-02-13T04:13:54;100242.63;;;0.39;88.93
48926;BME280;39838;59.938;30.642;2023-02-13T04:16:28;100266.84;;;0.49;88.59
48926;BME280;39838;59.938;30.642;2023-02-13T04:18:57;100246.44;;;0.50;88.72
48926;BME280;39838;59.938;30.642;2023-02-13T04:21:26;100237.25;;;0.56;88.82
48926;BME280;39838;59.938;30.642;2023-02-13T04:23:55;100242.47;;;0.59;89.08
48926;BME280;39838;59.938;30.642;2023-02-13T04:26:22;100250.09;;;0.57;89.00
48926;BME280;39838;59.938;30.642;2023-02-13T04:28:50;100234.06;;;0.61;88.67
48926;BME280;39838;59.938;30.642;2023-02-13T04:31:17;100229.91;;;0.65;88.99
48926;BME280;39838;59.938;30.642;2023-02-13T04:33:44;100245.28;;;0.66;89.07
48926;BME280;39838;59.938;30.642;2023-02-13T04:36:11;100251.44;;;0.71;88.89
48926;BME280;39838;59.938;30.642;2023-02-13T04:38:38;100236.88;;;0.69;88.67
48926;BME280;39838;59.938;30.642;2023-02-13T04:41:07;100247.13;;;0.69;88.42
48926;BME280;39838;59.938;30.642;2023-02-13T04:43:34;100249.66;;;0.69;89.06
48926;BME280;39838;59.938;30.642;2023-02-13T04:46:02;100265.84;;;0.68;88.76
48926;BME280;39838;59.938;30.642;2023-02-13T04:48:29;100270.13;;;0.69;88.88
48926;BME280;39838;59.938;30.642;2023-02-13T04:50:56;100260.75;;;0.69;88.88
48926;BME280;39838;59.938;30.642;2023-02-13T04:53:23;100258.25;;;0.71;88.67
48926;BME280;39838;59.938;30.642;2023-02-13T04:55:50;100258.16;;;0.68;88.94
48926;BME280;39838;59.938;30.642;2023-02-13T04:58:19;100251.28;;;0.67;89.09
48926;BME280;39838;59.938;30.642;2023-02-13T05:00:46;100250.50;;;0.68;88.86
48926;BME280;39838;59.938;30.642;2023-02-13T05:03:13;100253.84;;;0.67;88.85
48926;BME280;39838;59.938;30.642;2023-02-13T05:05:40;100252.09;;;0.66;88.48
48926;BME280;39838;59.938;30.642;2023-02-13T05:08:08;100256.41;;;0.67;88.40
48926;BME280;39838;59.938;30.642;2023-02-13T05:10:35;100273.50;;;0.68;88.77
48926;BME280;39838;59.938;30.642;2023-02-13T05:13:02;100245.50;;;0.72;88.59
48926;BME280;39838;59.938;30.642;2023-02-13T05:15:31;100226.78;;;0.73;88.85
48926;BME280;39838;59.938;30.642;2023-02-13T05:17:58;100225.06;;;0.72;87.92
48926;BME280;39838;59.938;30.642;2023-02-13T05:20:25;100219.06;;;0.72;88.19
48926;BME280;39838;59.938;30.642;2023-02-13T05:22:53;100235.28;;;0.72;88.39
48926;BME280;39838;59.938;30.642;2023-02-13T05:25:38;100219.06;;;0.72;88.16
48926;BME280;39838;59.938;30.642;2023-02-13T05:28:06;100225.84;;;0.70;88.21
48926;BME280;39838;59.938;30.642;2023-02-13T05:30:55;100217.25;;;0.68;88.53
48926;BME280;39838;59.938;30.642;2023-02-13T05:33:22;100224.16;;;0.70;88.41
48926;BME280;39838;59.938;30.642;2023-02-13T05:35:49;100225.97;;;0.74;88.25
48926;BME280;39838;59.938;30.642;2023-02-13T05:38:16;100214.19;;;0.78;88.25
48926;BME280;39838;59.938;30.642;2023-02-13T05:40:43;100218.50;;;0.80;88.44
48926;BME280;39838;59.938;30.642;2023-02-13T05:43:10;100219.28;;;0.78;87.97
48926;BME280;39838;59.938;30.642;2023-02-13T05:45:37;100219.25;;;0.76;88.29
48926;BME280;39838;59.938;30.642;2023-02-13T05:48:05;100220.13;;;0.77;88.72
48926;BME280;39838;59.938;30.642;2023-02-13T05:50:32;100243.22;;;0.80;88.23
48926;BME280;39838;59.938;30.642;2023-02-13T05:53:00;100231.38;;;0.82;88.15
48926;BME280;39838;59.938;30.642;2023-02-13T05:55:27;100222.03;;;0.82;87.91
48926;BME280;39838;59.938;30.642;2023-02-13T05:57:55;100219.50;;;0.84;88.44
48926;BME280;39838;59.938;30.642;2023-02-13T06:00:23;100221.25;;;0.85;87.76
48926;BME280;39838;59.938;30.642;2023-02-13T06:02:50;100217.00;;;0.86;87.88
48926;BME280;39838;59.938;30.642;2023-02-13T06:05:19;100215.34;;;0.88;87.76
48926;BME280;39838;59.938;30.642;2023-02-13T06:07:46;100209.44;;;0.89;87.43
48926;BME280;39838;59.938;30.642;2023-02-13T06:10:13;100217.25;;;0.93;87.53
48926;BME280;39838;59.938;30.642;2023-02-13T06:12:41;100207.06;;;0.95;87.40
48926;BME280;39838;59.938;30.642;2023-02-13T06:15:08;100206.16;;;0.93;87.47
48926;BME280;39838;59.938;30.642;2023-02-13T06:17:35;100200.13;;;0.91;87.27
48926;BME280;39838;59.938;30.642;2023-02-13T06:20:03;100189.13;;;0.93;87.70
48926;BME280;39838;59.938;30.642;2023-02-13T06:22:32;100196.78;;;0.93;87.38
48926;BME280;39838;59.938;30.642;2023-02-13T06:24:59;100190.09;;;0.97;87.41
48926;BME280;39838;59.938;30.642;2023-02-13T06:27:26;100209.91;;;1.02;87.19
48926;BME280;39838;59.938;30.642;2023-02-13T06:29:53;100199.75;;;1.05;87.14
48926;BME280;39838;59.938;30.642;2023-02-13T06:32:20;100204.91;;;1.07;86.67
48926;BME280;39838;59.938;30.642;2023-02-13T06:34:47;100192.09;;;1.05;86.67
48926;BME280;39838;59.938;30.642;2023-02-13T06:37:14;100192.94;;;1.06;87.11
48926;BME280;39838;59.938;30.642;2023-02-13T06:39:43;100195.56;;;1.07;86.67
48926;BME280;39838;59.938;30.642;2023-02-13T06:42:10;100181.03;;;1.06;86.69
48926;BME280;39838;59.938;30.642;2023-02-13T06:44:37;100159.03;;;1.12;86.72
48926;BME280;39838;59.938;30.642;2023-02-13T06:47:04;100170.28;;;1.17;86.93
48926;BME280;39838;59.938;30.642;2023-02-13T06:49:31;100170.38;;;1.20;86.40
48926;BME280;39838;59.938;30.642;2023-02-13T06:51:58;100162.81;;;1.23;86.51
48926;BME280;39838;59.938;30.642;2023-02-13T06:54:25;100171.44;;;1.26;86.15
48926;BME280;39838;59.938;30.642;2023-02-13T06:56:54;100169.94;;;1.33;86.23
48926;BME280;39838;59.938;30.642;2023-02-13T06:59:21;100159.91;;;1.39;86.22
48926;BME280;39838;59.938;30.642;2023-02-13T07:01:48;100146.47;;;1.46;86.31
48926;BME280;39838;59.938;30.642;2023-02-13T07:04:15;100143.28;;;1.53;85.93
48926;BME280;39838;59.938;30.642;2023-02-13T07:06:42;100134.03;;;1.58;85.74
48926;BME280;39838;59.938;30.642;2023-02-13T07:09:09;100131.56;;;1.61;85.27
48926;BME280;39838;59.938;30.642;2023-02-13T07:11:38;100134.31;;;1.68;85.14
48926;BME280;39838;59.938;30.642;2023-02-13T07:14:07;100123.16;;;1.66;85.32
48926;BME280;39838;59.938;30.642;2023-02-13T07:16:34;100131.94;;;1.74;84.89
48926;BME280;39838;59.938;30.642;2023-02-13T07:19:01;100139.59;;;1.72;84.26
48926;BME280;39838;59.938;30.642;2023-02-13T07:21:29;100153.97;;;1.69;84.23
48926;BME280;39838;59.938;30.642;2023-02-13T07:23:56;100115.47;;;1.66;84.48
48926;BME280;39838;59.938;30.642;2023-02-13T07:26:23;100101.13;;;1.71;84.39
48926;BME280;39838;59.938;30.642;2023-02-13T07:28:51;100120.13;;;1.79;84.45
48926;BME280;39838;59.938;30.642;2023-02-13T07:31:19;100117.72;;;1.83;84.33
48926;BME280;39838;59.938;30.642;2023-02-13T07:33:47;100114.25;;;1.83;83.93
48926;BME280;39838;59.938;30.642;2023-02-13T07:36:15;100111.97;;;1.92;83.56
48926;BME280;39838;59.938;30.642;2023-02-13T07:38:42;100097.44;;;1.91;83.22
48926;BME280;39838;59.938;30.642;2023-02-13T07:41:09;100124.69;;;1.89;83.17
48926;BME280;39838;59.938;30.642;2023-02-13T07:43:36;100099.91;;;1.88;83.14
48926;BME280;39838;59.938;30.642;2023-02-13T07:46:03;100111.13;;;1.91;82.95
48926;BME280;39838;59.938;30.642;2023-02-13T07:48:32;100086.38;;;1.92;83.27
48926;BME280;39838;59.938;30.642;2023-02-13T07:51:00;100095.16;;;2.02;82.84
48926;BME280;39838;59.938;30.642;2023-02-13T07:53:28;100083.97;;;1.98;82.85
48926;BME280;39838;59.938;30.642;2023-02-13T07:55:55;100086.56;;;2.00;82.89
48926;BME280;39838;59.938;30.642;2023-02-13T07:58:23;100083.16;;;1.99;82.60
48926;BME280;39838;59.938;30.642;2023-02-13T08:00:50;100071.28;;;2.03;82.63
48926;BME280;39838;59.938;30.642;2023-02-13T08:03:17;100067.94;;;2.05;82.33
48926;BME280;39838;59.938;30.642;2023-02-13T08:05:46;100085.78;;;2.02;82.49
48926;BME280;39838;59.938;30.642;2023-02-13T08:08:14;100066.97;;;2.02;82.16
48926;BME280;39838;59.938;30.642;2023-02-13T08:10:41;100069.66;;;2.06;82.33
48926;BME280;39838;59.938;30.642;2023-02-13T08:13:26;100072.19;;;2.05;82.28
48926;BME280;39838;59.938;30.642;2023-02-13T08:15:53;100073.97;;;2.07;82.18
48926;BME280;39838;59.938;30.642;2023-02-13T08:18:20;100063.75;;;2.09;82.15
48926;BME280;39838;59.938;30.642;2023-02-13T08:20:49;100052.72;;;2.11;82.19
48926;BME280;39838;59.938;30.642;2023-02-13T08:23:16;100063.09;;;2.16;82.00
48926;BME280;39838;59.938;30.642;2023-02-13T08:25:43;100035.91;;;2.23;82.08
48926;BME280;39838;59.938;30.642;2023-02-13T08:28:12;100045.50;;;2.30;81.99
48926;BME280;39838;59.938;30.642;2023-02-13T08:30:39;100058.56;;;2.37;81.46
48926;BME280;39838;59.938;30.642;2023-02-13T08:33:06;100051.78;;;2.41;81.19
48926;BME280;39838;59.938;30.642;2023-02-13T08:35:34;100037.47;;;2.49;80.91
48926;BME280;39838;59.938;30.642;2023-02-13T08:38:03;100037.31;;;2.43;80.77
48926;BME280;39838;59.938;30.642;2023-02-13T08:40:30;100037.41;;;2.46;80.83
48926;BME280;39838;59.938;30.642;2023-02-13T08:43:02;100039.97;;;2.46;80.69
48926;BME280;39838;59.938;30.642;2023-02-13T08:45:30;100031.56;;;2.52;80.76
48926;BME280;39838;59.938;30.642;2023-02-13T08:47:58;100026.47;;;2.53;80.42
48926;BME280;39838;59.938;30.642;2023-02-13T08:50:26;100024.91;;;2.60;80.58
48926;BME280;39838;59.938;30.642;2023-02-13T08:52:54;100022.34;;;2.60;80.23
48926;BME280;39838;59.938;30.642;2023-02-13T08:55:23;100019.00;;;2.64;80.13
48926;BME280;39838;59.938;30.642;2023-02-13T08:57:50;100011.41;;;2.67;80.05
48926;BME280;39838;59.938;30.642;2023-02-13T09:00:17;100002.19;;;2.75;79.89
48926;BME280;39838;59.938;30.642;2023-02-13T09:02:44;100006.59;;;2.81;79.74
48926;BME280;39838;59.938;30.642;2023-02-13T09:05:11;99992.25;;;2.90;79.63
48926;BME280;39838;59.938;30.642;2023-02-13T09:07:38;99994.25;;;3.02;79.35
48926;BME280;39838;59.938;30.642;2023-02-13T09:10:06;100001.94;;;3.02;79.07
48926;BME280;39838;59.938;30.642;2023-02-13T09:12:35;100000.41;;;3.10;79.31
48926;BME280;39838;59.938;30.642;2023-02-13T09:15:03;99997.13;;;3.16;78.77
48926;BME280;39838;59.938;30.642;2023-02-13T09:17:31;100002.50;;;3.26;78.40
48926;BME280;39838;59.938;30.642;2023-02-13T09:19:58;100000.13;;;3.37;78.49
48926;BME280;39838;59.938;30.642;2023-02-13T09:22:25;100001.13;;;3.44;78.39
48926;BME280;39838;59.938;30.642;2023-02-13T09:24:52;99993.72;;;3.58;77.66
48926;BME280;39838;59.938;30.642;2023-02-13T09:27:19;99988.81;;;3.70;77.93
48926;BME280;39838;59.938;30.642;2023-02-13T09:29:47;99985.63;;;3.81;77.37
48926;BME280;39838;59.938;30.642;2023-02-13T09:32:14;99978.88;;;3.87;76.58
48926;BME280;39838;59.938;30.642;2023-02-13T09:34:43;99987.50;;;3.92;76.84
48926;BME280;39838;59.938;30.642;2023-02-13T09:37:10;99984.91;;;3.89;76.89
48926;BME280;39838;59.938;30.642;2023-02-13T09:39:37;99977.91;;;3.81;76.04
48926;BME280;39838;59.938;30.642;2023-02-13T09:42:13;99967.50;;;3.75;76.46
48926;BME280;39838;59.938;30.642;2023-02-13T09:44:42;99958.00;;;3.70;76.39
48926;BME280;39838;59.938;30.642;2023-02-13T09:47:14;99949.38;;;3.68;76.00
48926;BME280;39838;59.938;30.642;2023-02-13T09:49:48;99953.53;;;3.60;76.19
48926;BME280;39838;59.938;30.642;2023-02-13T09:52:17;99941.44;;;3.54;76.29
48926;BME280;39838;59.938;30.642;2023-02-13T09:54:44;99947.28;;;3.47;76.19
48926;BME280;39838;59.938;30.642;2023-02-13T09:57:16;99945.44;;;3.41;76.14
48926;BME280;39838;59.938;30.642;2023-02-13T09:59:55;99942.03;;;3.41;75.64
48926;BME280;39838;59.938;30.642;2023-02-13T10:02:44;99938.50;;;3.37;76.10
48926;BME280;39838;59.938;30.642;2023-02-13T10:05:22;99931.72;;;3.39;76.63
48926;BME280;39838;59.938;30.642;2023-02-13T10:08:02;99943.78;;;3.43;76.10
48926;BME280;39838;59.938;30.642;2023-02-13T10:10:37;99931.50;;;3.28;76.54
48926;BME280;39838;59.938;30.642;2023-02-13T10:13:22;99931.38;;;3.22;76.71
48926;BME280;39838;59.938;30.642;2023-02-13T10:16:01;99922.16;;;3.32;77.17
48926;BME280;39838;59.938;30.642;2023-02-13T10:18:41;99925.72;;;3.39;76.54
48926;BME280;39838;59.938;30.642;2023-02-13T10:21:11;99927.19;;;3.27;76.49
48926;BME280;39838;59.938;30.642;2023-02-13T10:23:42;99920.13;;;3.17;76.67
48926;BME280;39838;59.938;30.642;2023-02-13T10:26:16;99928.66;;;3.16;76.61
48926;BME280;39838;59.938;30.642;2023-02-13T10:28:50;99929.34;;;3.08;76.88
48926;BME280;39838;59.938;30.642;2023-02-13T10:31:35;99919.41;;;2.84;77.22
48926;BME280;39838;59.938;30.642;2023-02-13T10:34:09;99929.78;;;2.87;77.91
48926;BME280;39838;59.938;30.642;2023-02-13T10:36:41;99913.53;;;2.88;77.63
48926;BME280;39838;59.938;30.642;2023-02-13T10:39:21;99926.41;;;2.91;77.45
48926;BME280;39838;59.938;30.642;2023-02-13T10:41:51;99868.34;;;2.55;77.45
48926;BME280;39838;59.938;30.642;2023-02-13T10:44:29;99932.91;;;2.75;78.00
48926;BME280;39838;59.938;30.642;2023-02-13T10:47:05;99913.22;;;2.72;78.26
48926;BME280;39838;59.938;30.642;2023-02-13T10:49:50;99908.97;;;2.74;78.40
48926;BME280;39838;59.938;30.642;2023-02-13T10:52:28;99906.56;;;2.82;77.82
48926;BME280;39838;59.938;30.642;2023-02-13T10:55:13;99900.00;;;2.95;77.73
48926;BME280;39838;59.938;30.642;2023-02-13T10:58:02;99897.53;;;2.99;77.44
48926;BME280;39838;59.938;30.642;2023-02-13T11:00:36;99902.75;;;3.04;77.57
48926;BME280;39838;59.938;30.642;2023-02-13T11:03:16;99913.97;;;3.08;77.13
48926;BME280;39838;59.938;30.642;2023-02-13T11:05:45;99897.81;;;3.13;77.18
48926;BME280;39838;59.938;30.642;2023-02-13T11:08:17;99905.59;;;3.18;77.49
48926;BME280;39838;59.938;30.642;2023-02-13T11:10:46;99906.44;;;3.17;76.67
48926;BME280;39838;59.938;30.642;2023-02-13T11:13:16;99892.81;;;3.19;76.73
48926;BME280;39838;59.938;30.642;2023-02-13T11:15:56;99892.81;;;3.19;77.34
48926;BME280;39838;59.938;30.642;2023-02-13T11:18:25;99873.91;;;3.16;76.95
48926;BME280;39838;59.938;30.642;2023-02-13T11:21:07;99893.56;;;3.14;77.14
48926;BME280;39838;59.938;30.642;2023-02-13T11:23:43;99879.78;;;3.10;77.19
48926;BME280;39838;59.938;30.642;2023-02-13T11:26:13;99886.69;;;3.13;76.88
48926;BME280;39838;59.938;30.642;2023-02-13T11:28:49;99872.81;;;3.05;77.35
48926;BME280;39838;59.938;30.642;2023-02-13T11:31:23;99894.06;;;2.97;76.96
48926;BME280;39838;59.938;30.642;2023-02-13T11:33:51;99877.72;;;2.92;77.72
48926;BME280;39838;59.938;30.642;2023-02-13T11:36:25;99873.22;;;2.82;77.36
48926;BME280;39838;59.938;30.642;2023-02-13T11:39:00;99861.78;;;2.66;78.07
48926;BME280;39838;59.938;30.642;2023-02-13T11:41:28;99884.19;;;2.75;77.95
48926;BME280;39838;59.938;30.642;2023-02-13T11:43:57;99883.59;;;2.49;78.46
48926;BME280;39838;59.938;30.642;2023-02-13T11:46:28;99902.66;;;2.59;78.19
48926;BME280;39838;59.938;30.642;2023-02-13T11:49:00;99893.13;;;2.55;78.88
48926;BME280;39838;59.938;30.642;2023-02-13T11:51:36;99887.16;;;2.54;78.99
48926;BME280;39838;59.938;30.642;2023-02-13T11:54:03;99904.94;;;2.48;79.39
48926;BME280;39838;59.938;30.642;2023-02-13T11:56:46;99873.06;;;2.37;79.06
48926;BME280;39838;59.938;30.642;2023-02-13T11:59:14;99878.31;;;2.41;79.25
48926;BME280;39838;59.938;30.642;2023-02-13T12:01:41;99887.97;;;2.53;79.31
48926;BME280;39838;59.938;30.642;2023-02-13T12:04:15;99881.13;;;2.52;79.21
48926;BME280;39838;59.938;30.642;2023-02-13T12:07:00;99863.78;;;2.42;79.31
48926;BME280;39838;59.938;30.642;2023-02-13T12:09:28;99883.72;;;2.54;79.35
48926;BME280;39838;59.938;30.642;2023-02-13T12:11:57;99894.63;;;2.45;79.47
48926;BME280;39838;59.938;30.642;2023-02-13T12:14:30;99892.91;;;2.44;79.60
48926;BME280;39838;59.938;30.642;2023-02-13T12:17:03;99893.56;;;2.37;79.55
48926;BME280;39838;59.938;30.642;2023-02-13T12:19:35;99886.84;;;2.40;79.67
48926;BME280;39838;59.938;30.642;2023-02-13T12:22:30;99889.97;;;2.29;79.70
48926;BME280;39838;59.938;30.642;2023-02-13T12:25:20;99888.22;;;2.26;80.02
48926;BME280;39838;59.938;30.642;2023-02-13T12:27:59;99892.47;;;2.26;80.14
48926;BME280;39838;59.938;30.642;2023-02-13T12:30:48;99880.56;;;2.28;80.38
48926;BME280;39838;59.938;30.642;2023-02-13T12:33:31;99882.38;;;2.32;80.14
48926;BME280;39838;59.938;30.642;2023-02-13T12:36:10;99890.97;;;2.35;79.92
48926;BME280;39838;59.938;30.642;2023-02-13T12:38:57;99890.19;;;2.38;79.62
48926;BME280;39838;59.938;30.642;2023-02-13T12:41:35;99896.06;;;2.34;79.53
48926;BME280;39838;59.938;30.642;2023-02-13T12:44:28;99888.31;;;2.31;79.69
48926;BME280;39838;59.938;30.642;2023-02-13T12:47:12;99896.78;;;2.28;79.82
48926;BME280;39838;59.938;30.642;2023-02-13T12:49:59;99882.22;;;2.26;79.88
48926;BME280;39838;59.938;30.642;2023-02-13T12:52:39;99883.09;;;2.26;80.16
48926;BME280;39838;59.938;30.642;2023-02-13T12:55:26;99879.50;;;2.19;80.40
48926;BME280;39838;59.938;30.642;2023-02-13T12:57:58;99865.72;;;2.14;80.30
48926;BME280;39838;59.938;30.642;2023-02-13T13:00:35;99883.88;;;2.24;80.25
48926;BME280;39838;59.938;30.642;2023-02-13T13:03:24;99885.53;;;2.22;80.12
48926;BME280;39838;59.938;30.642;2023-02-13T13:06:07;99888.91;;;2.19;80.12
48926;BME280;39838;59.938;30.642;2023-02-13T13:08:46;99893.91;;;2.14;80.40
48926;BME280;39838;59.938;30.642;2023-02-13T13:11:36;99893.75;;;2.08;80.30
48926;BME280;39838;59.938;30.642;2023-02-13T13:14:13;99877.50;;;2.08;80.72
48926;BME280;39838;59.938;30.642;2023-02-13T13:16:52;99882.53;;;2.03;80.72
48926;BME280;39838;59.938;30.642;2023-02-13T13:19:28;99878.97;;;1.97;81.07
48926;BME280;39838;59.938;30.642;2023-02-13T13:22:01;99878.06;;;1.96;81.29